sensor_id;sensor_type;location;lat;lon;timestamp;P1;durP1;ratioP1;P2;durP2;ratioP2
40931;SDS011;36257;46.052;12.540;2023-07-28T00:01:33;3.40;;;2.10;;
40931;SDS011;36257;46.052;12.540;2023-07-28T00:03:59;2.13;;;1.80;;
40931;SDS011;36257;46.052;12.540;2023-07-28T00:06:24;3.15;;;1.98;;
40931;SDS011;36257;46.052;12.540;2023-07-28T00:08:50;2.75;;;2.42;;
40931;SDS011;36257;46.052;12.540;2023-07-28T00:11:15;4.05;;;2.28;;
40931;SDS011;36257;46.052;12.540;2023-07-28T00:13:42;5.07;;;1.85;;
40931;SDS011;36257;46.052;12.540;2023-07-28T00:16:08;2.03;;;1.80;;
40931;SDS011;36257;46.052;12.540;2023-07-28T00:18:35;4.85;;;1.98;;
40931;SDS011;36257;46.052;12.540;2023-07-28T00:21:00;4.18;;;2.10;;
40931;SDS011;36257;46.052;12.540;2023-07-28T00:23:26;3.60;;;1.83;;
40931;SDS011;36257;46.052;12.540;2023-07-28T00:25:52;5.30;;;2.13;;
40931;SDS011;36257;46.052;12.540;2023-07-28T00:28:18;3.67;;;1.90;;
40931;SDS011;36257;46.052;12.540;2023-07-28T00:30:44;6.47;;;2.70;;
40931;SDS011;36257;46.052;12.540;2023-07-28T00:33:09;4.70;;;2.03;;
40931;SDS011;36257;46.052;12.540;2023-07-28T00:35:35;2.25;;;1.75;;
40931;SDS011;36257;46.052;12.540;2023-07-28T00:38:01;2.63;;;2.25;;
40931;SDS011;36257;46.052;12.540;2023-07-28T00:40:26;6.90;;;1.90;;
40931;SDS011;36257;46.052;12.540;2023-07-28T00:42:52;3.35;;;2.13;;
40931;SDS011;36257;46.052;12.540;2023-07-28T00:45:18;3.15;;;1.75;;
40931;SDS011;36257;46.052;12.540;2023-07-28T00:47:43;5.75;;;2.30;;
40931;SDS011;36257;46.052;12.540;2023-07-28T00:50:09;4.57;;;2.20;;
40931;SDS011;36257;46.052;12.540;2023-07-28T00:52:36;4.10;;;2.20;;
40931;SDS011;36257;46.052;12.540;2023-07-28T00:55:02;3.22;;;2.10;;
40931;SDS011;36257;46.052;12.540;2023-07-28T00:57:28;2.60;;;2.00;;
40931;SDS011;36257;46.052;12.540;2023-07-28T00:59:54;2.28;;;1.92;;
40931;SDS011;36257;46.052;12.540;2023-07-28T01:02:19;3.25;;;2.05;;
40931;SDS011;36257;46.052;12.540;2023-07-28T01:04:46;6.82;;;2.10;;
40931;SDS011;36257;46.052;12.540;2023-07-28T01:10:22;5.32;;;2.15;;
40931;SDS011;36257;46.052;12.540;2023-07-28T01:12:51;1.75;;;1.55;;
40931;SDS011;36257;46.052;12.540;2023-07-28T01:15:17;2.40;;;1.80;;
40931;SDS011;36257;46.052;12.540;2023-07-28T01:17:42;2.17;;;1.58;;
40931;SDS011;36257;46.052;12.540;2023-07-28T01:20:08;3.63;;;1.83;;
40931;SDS011;36257;46.052;12.540;2023-07-28T01:22:46;2.97;;;1.77;;
40931;SDS011;36257;46.052;12.540;2023-07-28T01:25:22;2.85;;;1.98;;
40931;SDS011;36257;46.052;12.540;2023-07-28T01:28:01;3.72;;;2.08;;
40931;SDS011;36257;46.052;12.540;2023-07-28T01:30:28;3.35;;;1.85;;
40931;SDS011;36257;46.052;12.540;2023-07-28T01:32:55;5.97;;;1.98;;
40931;SDS011;36257;46.052;12.540;2023-07-28T01:35:21;3.47;;;1.33;;
40931;SDS011;36257;46.052;12.540;2023-07-28T01:37:47;2.28;;;1.63;;
40931;SDS011;36257;46.052;12.540;2023-07-28T01:40:16;4.20;;;1.90;;
40931;SDS011;36257;46.052;12.540;2023-07-28T01:42:42;3.80;;;1.58;;
40931;SDS011;36257;46.052;12.540;2023-07-28T01:45:08;2.85;;;1.92;;
40931;SDS011;36257;46.052;12.540;2023-07-28T01:47:34;9.57;;;2.47;;
40931;SDS011;36257;46.052;12.540;2023-07-28T01:50:00;4.97;;;1.52;;
40931;SDS011;36257;46.052;12.540;2023-07-28T01:52:25;5.82;;;1.73;;
40931;SDS011;36257;46.052;12.540;2023-07-28T01:54:51;3.13;;;2.00;;
40931;SDS011;36257;46.052;12.540;2023-07-28T01:57:17;1.83;;;1.73;;
40931;SDS011;36257;46.052;12.540;2023-07-28T01:59:42;3.75;;;1.65;;
40931;SDS011;36257;46.052;12.540;2023-07-28T02:02:09;2.47;;;1.65;;
40931;SDS011;36257;46.052;12.540;2023-07-28T02:04:34;6.60;;;1.90;;
40931;SDS011;36257;46.052;12.540;2023-07-28T02:07:00;3.63;;;1.70;;
40931;SDS011;36257;46.052;12.540;2023-07-28T02:09:26;3.60;;;1.98;;
40931;SDS011;36257;46.052;12.540;2023-07-28T02:11:51;4.65;;;1.63;;
40931;SDS011;36257;46.052;12.540;2023-07-28T02:14:18;5.97;;;1.92;;
40931;SDS011;36257;46.052;12.540;2023-07-28T02:16:44;5.80;;;2.22;;
40931;SDS011;36257;46.052;12.540;2023-07-28T02:19:09;3.50;;;1.85;;
40931;SDS011;36257;46.052;12.540;2023-07-28T02:21:35;1.98;;;1.65;;
40931;SDS011;36257;46.052;12.540;2023-07-28T02:24:01;3.70;;;2.00;;
40931;SDS011;36257;46.052;12.540;2023-07-28T02:26:26;2.70;;;2.03;;
40931;SDS011;36257;46.052;12.540;2023-07-28T02:28:52;4.07;;;1.50;;
40931;SDS011;36257;46.052;12.540;2023-07-28T02:31:18;4.95;;;1.85;;
40931;SDS011;36257;46.052;12.540;2023-07-28T02:33:43;6.03;;;1.90;;
40931;SDS011;36257;46.052;12.540;2023-07-28T02:36:09;1.98;;;1.75;;
40931;SDS011;36257;46.052;12.540;2023-07-28T02:38:34;1.83;;;1.73;;
40931;SDS011;36257;46.052;12.540;2023-07-28T02:41:00;2.20;;;2.00;;
40931;SDS011;36257;46.052;12.540;2023-07-28T02:45:54;2.17;;;1.90;;
40931;SDS011;36257;46.052;12.540;2023-07-28T02:48:20;4.43;;;2.10;;
40931;SDS011;36257;46.052;12.540;2023-07-28T02:50:47;2.50;;;1.88;;
40931;SDS011;36257;46.052;12.540;2023-07-28T02:53:13;6.20;;;2.00;;
40931;SDS011;36257;46.052;12.540;2023-07-28T02:55:42;4.63;;;1.70;;
40931;SDS011;36257;46.052;12.540;2023-07-28T02:58:11;2.55;;;1.50;;
40931;SDS011;36257;46.052;12.540;2023-07-28T03:00:38;2.13;;;1.92;;
40931;SDS011;36257;46.052;12.540;2023-07-28T03:03:08;2.22;;;1.80;;
40931;SDS011;36257;46.052;12.540;2023-07-28T03:05:38;3.20;;;1.83;;
40931;SDS011;36257;46.052;12.540;2023-07-28T03:08:04;4.72;;;1.95;;
40931;SDS011;36257;46.052;12.540;2023-07-28T03:10:30;2.15;;;1.95;;
40931;SDS011;36257;46.052;12.540;2023-07-28T03:12:56;2.40;;;2.08;;
40931;SDS011;36257;46.052;12.540;2023-07-28T03:15:22;2.17;;;1.75;;
40931;SDS011;36257;46.052;12.540;2023-07-28T03:17:49;2.70;;;2.10;;
40931;SDS011;36257;46.052;12.540;2023-07-28T03:20:15;2.67;;;2.03;;
40931;SDS011;36257;46.052;12.540;2023-07-28T03:22:41;4.07;;;2.00;;
40931;SDS011;36257;46.052;12.540;2023-07-28T03:25:06;4.78;;;1.90;;
40931;SDS011;36257;46.052;12.540;2023-07-28T03:27:32;6.22;;;1.85;;
40931;SDS011;36257;46.052;12.540;2023-07-28T03:29:58;2.53;;;1.88;;
40931;SDS011;36257;46.052;12.540;2023-07-28T03:32:24;2.38;;;1.98;;
40931;SDS011;36257;46.052;12.540;2023-07-28T03:34:50;1.80;;;1.70;;
40931;SDS011;36257;46.052;12.540;2023-07-28T03:37:15;3.00;;;2.10;;
40931;SDS011;36257;46.052;12.540;2023-07-28T03:39:41;3.42;;;2.08;;
40931;SDS011;36257;46.052;12.540;2023-07-28T03:42:07;1.95;;;1.75;;
40931;SDS011;36257;46.052;12.540;2023-07-28T03:44:33;3.35;;;2.08;;
40931;SDS011;36257;46.052;12.540;2023-07-28T03:46:59;5.70;;;2.53;;
40931;SDS011;36257;46.052;12.540;2023-07-28T03:49:25;4.95;;;2.30;;
40931;SDS011;36257;46.052;12.540;2023-07-28T03:51:50;4.68;;;2.38;;
40931;SDS011;36257;46.052;12.540;2023-07-28T03:54:16;3.20;;;1.90;;
40931;SDS011;36257;46.052;12.540;2023-07-28T03:56:41;2.65;;;2.15;;
40931;SDS011;36257;46.052;12.540;2023-07-28T03:59:07;6.03;;;2.30;;
40931;SDS011;36257;46.052;12.540;2023-07-28T04:01:33;2.40;;;2.20;;
40931;SDS011;36257;46.052;12.540;2023-07-28T04:03:58;2.97;;;2.35;;
40931;SDS011;36257;46.052;12.540;2023-07-28T04:06:44;1.90;;;1.80;;
40931;SDS011;36257;46.052;12.540;2023-07-28T04:09:12;2.58;;;1.80;;
40931;SDS011;36257;46.052;12.540;2023-07-28T04:11:39;2.40;;;1.67;;
40931;SDS011;36257;46.052;12.540;2023-07-28T04:14:05;2.58;;;2.10;;
40931;SDS011;36257;46.052;12.540;2023-07-28T04:16:31;3.08;;;1.90;;
40931;SDS011;36257;46.052;12.540;2023-07-28T04:18:57;5.85;;;2.47;;
40931;SDS011;36257;46.052;12.540;2023-07-28T04:21:23;4.25;;;2.30;;
40931;SDS011;36257;46.052;12.540;2023-07-28T04:23:48;2.50;;;2.13;;
40931;SDS011;36257;46.052;12.540;2023-07-28T04:26:15;2.17;;;1.98;;
40931;SDS011;36257;46.052;12.540;2023-07-28T04:28:44;2.83;;;2.55;;
40931;SDS011;36257;46.052;12.540;2023-07-28T04:31:10;3.75;;;2.60;;
40931;SDS011;36257;46.052;12.540;2023-07-28T04:33:37;2.20;;;2.00;;
40931;SDS011;36257;46.052;12.540;2023-07-28T04:36:08;3.00;;;1.77;;
40931;SDS011;36257;46.052;12.540;2023-07-28T04:38:35;2.63;;;2.35;;
40931;SDS011;36257;46.052;12.540;2023-07-28T04:41:01;3.28;;;1.73;;
40931;SDS011;36257;46.052;12.540;2023-07-28T04:43:30;3.55;;;1.83;;
40931;SDS011;36257;46.052;12.540;2023-07-28T04:45:55;3.80;;;1.83;;
40931;SDS011;36257;46.052;12.540;2023-07-28T04:48:21;3.40;;;2.30;;
40931;SDS011;36257;46.052;12.540;2023-07-28T04:50:48;3.25;;;1.98;;
40931;SDS011;36257;46.052;12.540;2023-07-28T04:53:14;3.13;;;2.30;;
40931;SDS011;36257;46.052;12.540;2023-07-28T04:55:40;1.92;;;1.80;;
40931;SDS011;36257;46.052;12.540;2023-07-28T04:58:05;2.20;;;1.75;;
40931;SDS011;36257;46.052;12.540;2023-07-28T05:00:31;2.53;;;2.00;;
40931;SDS011;36257;46.052;12.540;2023-07-28T05:02:57;2.92;;;1.70;;
40931;SDS011;36257;46.052;12.540;2023-07-28T05:05:22;1.80;;;1.70;;
40931;SDS011;36257;46.052;12.540;2023-07-28T05:07:48;4.55;;;1.77;;
40931;SDS011;36257;46.052;12.540;2023-07-28T05:10:13;1.88;;;1.60;;
40931;SDS011;36257;46.052;12.540;2023-07-28T05:12:39;3.55;;;1.77;;
40931;SDS011;36257;46.052;12.540;2023-07-28T05:15:05;3.75;;;1.80;;
40931;SDS011;36257;46.052;12.540;2023-07-28T05:17:35;6.03;;;1.85;;
40931;SDS011;36257;46.052;12.540;2023-07-28T05:20:01;2.70;;;1.52;;
40931;SDS011;36257;46.052;12.540;2023-07-28T05:22:27;2.97;;;1.77;;
40931;SDS011;36257;46.052;12.540;2023-07-28T05:24:53;3.25;;;1.83;;
40931;SDS011;36257;46.052;12.540;2023-07-28T05:27:18;2.05;;;1.38;;
40931;SDS011;36257;46.052;12.540;2023-07-28T05:29:44;2.30;;;1.85;;
40931;SDS011;36257;46.052;12.540;2023-07-28T05:32:10;6.38;;;1.90;;
40931;SDS011;36257;46.052;12.540;2023-07-28T05:34:35;2.65;;;1.50;;
40931;SDS011;36257;46.052;12.540;2023-07-28T05:37:01;1.55;;;1.38;;
40931;SDS011;36257;46.052;12.540;2023-07-28T05:39:26;3.35;;;1.77;;
40931;SDS011;36257;46.052;12.540;2023-07-28T05:41:52;2.53;;;1.35;;
40931;SDS011;36257;46.052;12.540;2023-07-28T05:44:18;1.75;;;1.60;;
40931;SDS011;36257;46.052;12.540;2023-07-28T05:46:43;1.50;;;1.30;;
40931;SDS011;36257;46.052;12.540;2023-07-28T05:49:10;1.83;;;1.38;;
40931;SDS011;36257;46.052;12.540;2023-07-28T05:51:36;2.47;;;1.17;;
40931;SDS011;36257;46.052;12.540;2023-07-28T05:54:02;1.55;;;1.10;;
40931;SDS011;36257;46.052;12.540;2023-07-28T05:56:27;2.08;;;1.65;;
40931;SDS011;36257;46.052;12.540;2023-07-28T05:58:53;1.20;;;1.10;;
40931;SDS011;36257;46.052;12.540;2023-07-28T06:01:19;2.17;;;1.40;;
40931;SDS011;36257;46.052;12.540;2023-07-28T06:03:45;3.45;;;1.45;;
40931;SDS011;36257;46.052;12.540;2023-07-28T06:06:10;3.35;;;1.42;;
40931;SDS011;36257;46.052;12.540;2023-07-28T06:08:37;3.30;;;1.38;;
40931;SDS011;36257;46.052;12.540;2023-07-28T06:11:03;1.95;;;1.38;;
40931;SDS011;36257;46.052;12.540;2023-07-28T06:13:30;1.75;;;1.65;;
40931;SDS011;36257;46.052;12.540;2023-07-28T06:54:47;1.38;;;1.23;;
40931;SDS011;36257;46.052;12.540;2023-07-28T06:57:14;1.42;;;1.20;;
40931;SDS011;36257;46.052;12.540;2023-07-28T06:59:40;2.67;;;2.08;;
40931;SDS011;36257;46.052;12.540;2023-07-28T07:02:06;1.60;;;1.37;;
40931;SDS011;36257;46.052;12.540;2023-07-28T07:04:32;2.85;;;1.25;;
40931;SDS011;36257;46.052;12.540;2023-07-28T07:06:58;2.92;;;1.30;;
40931;SDS011;36257;46.052;12.540;2023-07-28T07:09:23;2.78;;;1.38;;
40931;SDS011;36257;46.052;12.540;2023-07-28T07:11:49;1.60;;;1.35;;
40931;SDS011;36257;46.052;12.540;2023-07-28T07:14:15;2.75;;;1.48;;
40931;SDS011;36257;46.052;12.540;2023-07-28T07:16:41;1.35;;;1.10;;
40931;SDS011;36257;46.052;12.540;2023-07-28T07:19:07;3.53;;;1.23;;
40931;SDS011;36257;46.052;12.540;2023-07-28T07:21:33;1.83;;;1.50;;
40931;SDS011;36257;46.052;12.540;2023-07-28T07:23:59;2.25;;;1.30;;
40931;SDS011;36257;46.052;12.540;2023-07-28T07:26:25;2.13;;;1.10;;
40931;SDS011;36257;46.052;12.540;2023-07-28T07:28:51;2.53;;;1.15;;
40931;SDS011;36257;46.052;12.540;2023-07-28T07:31:16;1.67;;;1.30;;
40931;SDS011;36257;46.052;12.540;2023-07-28T07:33:42;2.92;;;1.30;;
40931;SDS011;36257;46.052;12.540;2023-07-28T07:36:11;1.73;;;1.38;;
40931;SDS011;36257;46.052;12.540;2023-07-28T07:38:38;2.08;;;1.17;;
40931;SDS011;36257;46.052;12.540;2023-07-28T07:41:05;1.08;;;0.90;;
40931;SDS011;36257;46.052;12.540;2023-07-28T07:43:32;1.52;;;1.15;;
40931;SDS011;36257;46.052;12.540;2023-07-28T07:45:58;1.73;;;1.00;;
40931;SDS011;36257;46.052;12.540;2023-07-28T07:48:24;2.03;;;1.25;;
40931;SDS011;36257;46.052;12.540;2023-07-28T07:50:50;1.90;;;0.98;;
40931;SDS011;36257;46.052;12.540;2023-07-28T07:53:16;1.40;;;1.30;;
40931;SDS011;36257;46.052;12.540;2023-07-28T07:55:42;2.47;;;1.30;;
40931;SDS011;36257;46.052;12.540;2023-07-28T07:58:08;3.35;;;1.38;;
40931;SDS011;36257;46.052;12.540;2023-07-28T08:00:34;2.22;;;1.17;;
40931;SDS011;36257;46.052;12.540;2023-07-28T08:03:01;1.30;;;1.20;;
40931;SDS011;36257;46.052;12.540;2023-07-28T08:05:27;4.18;;;1.23;;
40931;SDS011;36257;46.052;12.540;2023-07-28T08:07:53;1.15;;;1.05;;
40931;SDS011;36257;46.052;12.540;2023-07-28T08:10:20;3.90;;;1.23;;
40931;SDS011;36257;46.052;12.540;2023-07-28T08:12:45;2.47;;;1.00;;
40931;SDS011;36257;46.052;12.540;2023-07-28T08:15:12;2.08;;;1.45;;
40931;SDS011;36257;46.052;12.540;2023-07-28T08:17:38;2.25;;;1.27;;
40931;SDS011;36257;46.052;12.540;2023-07-28T08:20:05;1.75;;;0.95;;
40931;SDS011;36257;46.052;12.540;2023-07-28T08:22:34;1.85;;;1.05;;
40931;SDS011;36257;46.052;12.540;2023-07-28T08:25:00;2.20;;;1.50;;
40931;SDS011;36257;46.052;12.540;2023-07-28T08:27:25;1.33;;;1.00;;
40931;SDS011;36257;46.052;12.540;2023-07-28T08:29:51;1.67;;;1.10;;
40931;SDS011;36257;46.052;12.540;2023-07-28T08:32:16;2.50;;;1.20;;
40931;SDS011;36257;46.052;12.540;2023-07-28T08:34:42;4.30;;;1.30;;
40931;SDS011;36257;46.052;12.540;2023-07-28T08:37:08;3.42;;;1.40;;
40931;SDS011;36257;46.052;12.540;2023-07-28T08:39:34;1.70;;;1.50;;
40931;SDS011;36257;46.052;12.540;2023-07-28T08:42:00;2.05;;;1.30;;
40931;SDS011;36257;46.052;12.540;2023-07-28T08:44:27;1.42;;;1.33;;
40931;SDS011;36257;46.052;12.540;2023-07-28T08:46:56;1.65;;;1.10;;
40931;SDS011;36257;46.052;12.540;2023-07-28T08:49:21;3.17;;;1.40;;
40931;SDS011;36257;46.052;12.540;2023-07-28T08:51:50;2.47;;;1.35;;
40931;SDS011;36257;46.052;12.540;2023-07-28T08:54:17;2.45;;;1.20;;
40931;SDS011;36257;46.052;12.540;2023-07-28T08:56:43;1.85;;;1.33;;
40931;SDS011;36257;46.052;12.540;2023-07-28T08:59:09;1.40;;;1.20;;
40931;SDS011;36257;46.052;12.540;2023-07-28T09:01:41;2.15;;;1.20;;
40931;SDS011;36257;46.052;12.540;2023-07-28T09:04:11;1.52;;;1.40;;
40931;SDS011;36257;46.052;12.540;2023-07-28T09:06:37;1.80;;;1.30;;
40931;SDS011;36257;46.052;12.540;2023-07-28T09:09:06;1.20;;;0.90;;
40931;SDS011;36257;46.052;12.540;2023-07-28T09:11:32;1.55;;;1.20;;
40931;SDS011;36257;46.052;12.540;2023-07-28T09:14:00;1.77;;;1.48;;
40931;SDS011;36257;46.052;12.540;2023-07-28T09:18:54;2.65;;;1.15;;
40931;SDS011;36257;46.052;12.540;2023-07-28T09:21:32;2.13;;;1.45;;
40931;SDS011;36257;46.052;12.540;2023-07-28T09:24:05;3.05;;;1.20;;
40931;SDS011;36257;46.052;12.540;2023-07-28T09:26:41;2.92;;;1.00;;
40931;SDS011;36257;46.052;12.540;2023-07-28T09:29:14;2.97;;;1.40;;
40931;SDS011;36257;46.052;12.540;2023-07-28T09:31:42;2.70;;;1.48;;
40931;SDS011;36257;46.052;12.540;2023-07-28T09:34:08;1.57;;;1.23;;
40931;SDS011;36257;46.052;12.540;2023-07-28T09:36:35;1.58;;;0.85;;
40931;SDS011;36257;46.052;12.540;2023-07-28T09:39:03;3.13;;;1.30;;
40931;SDS011;36257;46.052;12.540;2023-07-28T09:41:33;2.38;;;1.30;;
40931;SDS011;36257;46.052;12.540;2023-07-28T09:44:03;2.35;;;1.05;;
40931;SDS011;36257;46.052;12.540;2023-07-28T09:46:30;1.42;;;1.05;;
40931;SDS011;36257;46.052;12.540;2023-07-28T09:48:59;5.18;;;1.70;;
40931;SDS011;36257;46.052;12.540;2023-07-28T09:51:29;2.20;;;1.55;;
40931;SDS011;36257;46.052;12.540;2023-07-28T09:54:07;2.40;;;1.60;;
40931;SDS011;36257;46.052;12.540;2023-07-28T09:56:37;2.83;;;1.50;;
40931;SDS011;36257;46.052;12.540;2023-07-28T09:59:06;1.27;;;1.13;;
40931;SDS011;36257;46.052;12.540;2023-07-28T10:01:36;2.90;;;1.30;;
40931;SDS011;36257;46.052;12.540;2023-07-28T10:04:03;2.37;;;1.67;;
40931;SDS011;36257;46.052;12.540;2023-07-28T10:06:29;2.92;;;1.70;;
40931;SDS011;36257;46.052;12.540;2023-07-28T10:08:56;2.57;;;1.60;;
40931;SDS011;36257;46.052;12.540;2023-07-28T10:11:21;2.35;;;1.65;;
40931;SDS011;36257;46.052;12.540;2023-07-28T13:49:07;2.63;;;1.42;;
40931;SDS011;36257;46.052;12.540;2023-07-28T13:52:30;3.13;;;1.70;;
40931;SDS011;36257;46.052;12.540;2023-07-28T13:59:38;2.33;;;1.60;;
40931;SDS011;36257;46.052;12.540;2023-07-28T14:03:23;2.33;;;1.40;;
40931;SDS011;36257;46.052;12.540;2023-07-28T14:06:47;3.65;;;1.48;;
40931;SDS011;36257;46.052;12.540;2023-07-28T14:13:05;2.33;;;1.50;;
40931;SDS011;36257;46.052;12.540;2023-07-28T14:15:36;1.80;;;1.42;;
40931;SDS011;36257;46.052;12.540;2023-07-28T14:18:26;2.53;;;1.50;;
40931;SDS011;36257;46.052;12.540;2023-07-28T14:21:08;1.45;;;1.33;;
40931;SDS011;36257;46.052;12.540;2023-07-28T14:23:47;2.35;;;1.42;;
40931;SDS011;36257;46.052;12.540;2023-07-28T14:28:42;3.63;;;1.63;;
40931;SDS011;36257;46.052;12.540;2023-07-28T14:31:16;2.50;;;1.88;;
40931;SDS011;36257;46.052;12.540;2023-07-28T14:33:49;2.47;;;1.60;;
40931;SDS011;36257;46.052;12.540;2023-07-28T14:38:43;1.83;;;1.40;;
40931;SDS011;36257;46.052;12.540;2023-07-28T14:41:29;2.45;;;1.77;;
40931;SDS011;36257;46.052;12.540;2023-07-28T14:44:01;5.40;;;1.60;;
40931;SDS011;36257;46.052;12.540;2023-07-28T14:46:51;2.42;;;1.60;;
40931;SDS011;36257;46.052;12.540;2023-07-28T14:49:20;3.92;;;1.67;;
40931;SDS011;36257;46.052;12.540;2023-07-28T14:51:49;3.45;;;1.70;;
40931;SDS011;36257;46.052;12.540;2023-07-28T14:54:15;5.80;;;1.67;;
40931;SDS011;36257;46.052;12.540;2023-07-28T14:56:41;3.08;;;1.30;;
40931;SDS011;36257;46.052;12.540;2023-07-28T14:59:07;2.03;;;1.45;;
40931;SDS011;36257;46.052;12.540;2023-07-28T15:01:43;2.88;;;1.33;;
40931;SDS011;36257;46.052;12.540;2023-07-28T15:04:09;3.20;;;1.70;;
40931;SDS011;36257;46.052;12.540;2023-07-28T15:06:36;2.35;;;1.52;;
40931;SDS011;36257;46.052;12.540;2023-07-28T15:09:02;3.03;;;1.58;;
40931;SDS011;36257;46.052;12.540;2023-07-28T15:21:51;3.10;;;1.58;;
40931;SDS011;36257;46.052;12.540;2023-07-28T15:24:17;3.78;;;1.30;;
40931;SDS011;36257;46.052;12.540;2023-07-28T15:43:06;2.60;;;1.77;;
40931;SDS011;36257;46.052;12.540;2023-07-28T15:45:37;3.38;;;1.73;;
40931;SDS011;36257;46.052;12.540;2023-07-28T15:48:11;4.38;;;1.80;;
40931;SDS011;36257;46.052;12.540;2023-07-28T15:50:41;4.13;;;2.00;;
40931;SDS011;36257;46.052;12.540;2023-07-28T15:53:20;5.85;;;2.15;;
40931;SDS011;36257;46.052;12.540;2023-07-28T15:55:46;4.50;;;2.25;;
40931;SDS011;36257;46.052;12.540;2023-07-28T15:58:13;2.88;;;2.00;;
40931;SDS011;36257;46.052;12.540;2023-07-28T16:00:40;3.58;;;2.00;;
40931;SDS011;36257;46.052;12.540;2023-07-28T16:03:07;2.53;;;1.50;;
40931;SDS011;36257;46.052;12.540;2023-07-28T16:05:48;5.22;;;2.15;;
40931;SDS011;36257;46.052;12.540;2023-07-28T16:08:48;4.60;;;1.92;;
40931;SDS011;36257;46.052;12.540;2023-07-28T16:11:14;5.80;;;2.20;;
40931;SDS011;36257;46.052;12.540;2023-07-28T16:13:42;8.00;;;2.42;;
40931;SDS011;36257;46.052;12.540;2023-07-28T16:16:08;9.73;;;2.55;;
40931;SDS011;36257;46.052;12.540;2023-07-28T16:18:36;6.28;;;3.17;;
40931;SDS011;36257;46.052;12.540;2023-07-28T17:18:54;2.25;;;1.67;;
40931;SDS011;36257;46.052;12.540;2023-07-28T17:21:47;4.95;;;2.13;;
40931;SDS011;36257;46.052;12.540;2023-07-28T17:24:13;2.40;;;1.85;;
40931;SDS011;36257;46.052;12.540;2023-07-28T17:26:38;4.97;;;2.38;;
40931;SDS011;36257;46.052;12.540;2023-07-28T17:29:05;4.30;;;1.90;;
40931;SDS011;36257;46.052;12.540;2023-07-28T17:31:30;4.93;;;2.20;;
40931;SDS011;36257;46.052;12.540;2023-07-28T17:33:57;3.13;;;1.77;;
40931;SDS011;36257;46.052;12.540;2023-07-28T17:38:49;5.38;;;1.92;;
40931;SDS011;36257;46.052;12.540;2023-07-28T17:41:15;7.25;;;2.13;;
40931;SDS011;36257;46.052;12.540;2023-07-28T17:43:42;3.83;;;1.70;;
40931;SDS011;36257;46.052;12.540;2023-07-28T17:46:13;5.95;;;2.05;;
40931;SDS011;36257;46.052;12.540;2023-07-28T17:48:38;2.42;;;2.00;;
40931;SDS011;36257;46.052;12.540;2023-07-28T17:51:04;3.75;;;1.95;;
40931;SDS011;36257;46.052;12.540;2023-07-28T17:53:30;3.70;;;1.80;;
40931;SDS011;36257;46.052;12.540;2023-07-28T17:55:56;3.85;;;2.08;;
40931;SDS011;36257;46.052;12.540;2023-07-28T17:58:22;3.78;;;2.10;;
40931;SDS011;36257;46.052;12.540;2023-07-28T18:00:48;3.53;;;2.25;;
40931;SDS011;36257;46.052;12.540;2023-07-28T18:03:14;4.18;;;1.92;;
40931;SDS011;36257;46.052;12.540;2023-07-28T18:05:41;2.53;;;1.75;;
40931;SDS011;36257;46.052;12.540;2023-07-28T18:08:07;2.55;;;1.90;;
40931;SDS011;36257;46.052;12.540;2023-07-28T18:10:39;2.22;;;2.03;;
40931;SDS011;36257;46.052;12.540;2023-07-28T18:13:05;2.00;;;1.73;;
40931;SDS011;36257;46.052;12.540;2023-07-28T18:15:31;2.20;;;2.00;;
40931;SDS011;36257;46.052;12.540;2023-07-28T18:17:58;4.30;;;2.55;;
40931;SDS011;36257;46.052;12.540;2023-07-28T18:20:25;16.23;;;3.30;;
40931;SDS011;36257;46.052;12.540;2023-07-28T18:22:51;6.22;;;2.60;;
40931;SDS011;36257;46.052;12.540;2023-07-28T18:25:17;4.45;;;2.53;;
40931;SDS011;36257;46.052;12.540;2023-07-28T18:27:42;3.13;;;2.55;;
40931;SDS011;36257;46.052;12.540;2023-07-28T18:30:08;4.75;;;2.40;;
40931;SDS011;36257;46.052;12.540;2023-07-28T18:32:34;9.20;;;2.25;;
40931;SDS011;36257;46.052;12.540;2023-07-28T18:35:00;3.55;;;2.22;;
40931;SDS011;36257;46.052;12.540;2023-07-28T18:37:26;2.95;;;2.05;;
40931;SDS011;36257;46.052;12.540;2023-07-28T18:39:52;5.00;;;1.80;;
40931;SDS011;36257;46.052;12.540;2023-07-28T18:42:17;2.72;;;2.20;;
40931;SDS011;36257;46.052;12.540;2023-07-28T18:44:43;6.13;;;3.05;;
40931;SDS011;36257;46.052;12.540;2023-07-28T18:47:09;4.53;;;2.75;;
40931;SDS011;36257;46.052;12.540;2023-07-28T18:49:35;3.45;;;2.25;;
40931;SDS011;36257;46.052;12.540;2023-07-28T18:52:00;5.10;;;2.42;;
40931;SDS011;36257;46.052;12.540;2023-07-28T18:54:28;4.03;;;2.13;;
40931;SDS011;36257;46.052;12.540;2023-07-28T18:56:56;3.55;;;2.25;;
40931;SDS011;36257;46.052;12.540;2023-07-28T18:59:22;4.03;;;2.53;;
40931;SDS011;36257;46.052;12.540;2023-07-28T19:01:48;5.78;;;2.53;;
40931;SDS011;36257;46.052;12.540;2023-07-28T19:04:17;3.97;;;2.28;;
40931;SDS011;36257;46.052;12.540;2023-07-28T19:06:48;8.88;;;2.88;;
40931;SDS011;36257;46.052;12.540;2023-07-28T19:09:14;5.95;;;2.60;;
40931;SDS011;36257;46.052;12.540;2023-07-28T19:11:42;4.50;;;2.65;;
40931;SDS011;36257;46.052;12.540;2023-07-28T19:14:08;4.65;;;2.38;;
40931;SDS011;36257;46.052;12.540;2023-07-28T19:16:34;2.80;;;2.08;;
40931;SDS011;36257;46.052;12.540;2023-07-28T19:19:00;5.15;;;2.35;;
40931;SDS011;36257;46.052;12.540;2023-07-28T19:21:26;5.05;;;2.53;;
40931;SDS011;36257;46.052;12.540;2023-07-28T19:23:51;4.47;;;2.00;;
40931;SDS011;36257;46.052;12.540;2023-07-28T19:26:17;3.15;;;2.20;;
40931;SDS011;36257;46.052;12.540;2023-07-28T19:28:44;3.33;;;2.50;;
40931;SDS011;36257;46.052;12.540;2023-07-28T19:31:10;3.13;;;2.40;;
40931;SDS011;36257;46.052;12.540;2023-07-28T19:33:36;4.55;;;2.75;;
40931;SDS011;36257;46.052;12.540;2023-07-28T19:36:02;7.97;;;3.08;;
40931;SDS011;36257;46.052;12.540;2023-07-28T19:38:28;5.78;;;2.90;;
40931;SDS011;36257;46.052;12.540;2023-07-28T19:40:57;3.60;;;2.22;;
40931;SDS011;36257;46.052;12.540;2023-07-28T19:43:23;5.07;;;2.50;;
40931;SDS011;36257;46.052;12.540;2023-07-28T19:45:48;6.10;;;2.47;;
40931;SDS011;36257;46.052;12.540;2023-07-28T19:48:18;2.53;;;2.00;;
40931;SDS011;36257;46.052;12.540;2023-07-28T19:50:45;4.28;;;2.30;;
40931;SDS011;36257;46.052;12.540;2023-07-28T19:53:11;4.15;;;2.42;;
40931;SDS011;36257;46.052;12.540;2023-07-28T19:55:37;4.25;;;2.30;;
40931;SDS011;36257;46.052;12.540;2023-07-28T19:58:03;7.03;;;2.83;;
40931;SDS011;36257;46.052;12.540;2023-07-28T20:00:28;2.85;;;2.42;;
40931;SDS011;36257;46.052;12.540;2023-07-28T20:02:54;3.97;;;2.67;;
40931;SDS011;36257;46.052;12.540;2023-07-28T20:05:20;2.10;;;1.90;;
40931;SDS011;36257;46.052;12.540;2023-07-28T20:07:46;7.03;;;2.85;;
40931;SDS011;36257;46.052;12.540;2023-07-28T20:10:12;4.32;;;2.47;;
40931;SDS011;36257;46.052;12.540;2023-07-28T20:12:38;5.38;;;2.78;;
40931;SDS011;36257;46.052;12.540;2023-07-28T20:15:04;3.13;;;2.50;;
40931;SDS011;36257;46.052;12.540;2023-07-28T20:17:30;2.97;;;2.55;;
40931;SDS011;36257;46.052;12.540;2023-07-28T20:19:56;4.60;;;2.20;;
40931;SDS011;36257;46.052;12.540;2023-07-28T20:22:21;4.68;;;2.85;;
40931;SDS011;36257;46.052;12.540;2023-07-28T20:24:47;4.68;;;2.45;;
40931;SDS011;36257;46.052;12.540;2023-07-28T20:27:13;3.13;;;2.28;;
40931;SDS011;36257;46.052;12.540;2023-07-28T20:29:39;2.88;;;2.67;;
40931;SDS011;36257;46.052;12.540;2023-07-28T20:32:05;5.25;;;2.83;;
40931;SDS011;36257;46.052;12.540;2023-07-28T20:36:58;3.38;;;2.55;;
40931;SDS011;36257;46.052;12.540;2023-07-28T20:39:24;3.67;;;2.50;;
40931;SDS011;36257;46.052;12.540;2023-07-28T20:41:49;4.22;;;2.50;;